sensor_id;sensor_type;location;lat;lon;timestamp;P1;durP1;ratioP1;P2;durP2;ratioP2
66751;SDS011;53663;42.676;23.238;2022-10-23T00:03:55;20.42;;;11.25;;
66751;SDS011;53663;42.676;23.238;2022-10-23T00:06:22;26.27;;;11.00;;
66751;SDS011;53663;42.676;23.238;2022-10-23T00:08:48;20.33;;;11.27;;
66751;SDS011;53663;42.676;23.238;2022-10-23T00:11:15;24.20;;;11.00;;
66751;SDS011;53663;42.676;23.238;2022-10-23T00:13:43;28.65;;;11.68;;
66751;SDS011;53663;42.676;23.238;2022-10-23T00:16:09;22.92;;;11.73;;
66751;SDS011;53663;42.676;23.238;2022-10-23T00:18:35;21.02;;;11.45;;
66751;SDS011;53663;42.676;23.238;2022-10-23T00:21:01;20.58;;;10.45;;
66751;SDS011;53663;42.676;23.238;2022-10-23T00:23:27;26.65;;;10.95;;
66751;SDS011;53663;42.676;23.238;2022-10-23T00:25:54;19.27;;;10.60;;
66751;SDS011;53663;42.676;23.238;2022-10-23T00:28:20;19.17;;;11.20;;
66751;SDS011;53663;42.676;23.238;2022-10-23T00:30:45;21.63;;;11.45;;
66751;SDS011;53663;42.676;23.238;2022-10-23T00:33:11;25.90;;;10.90;;
66751;SDS011;53663;42.676;23.238;2022-10-23T00:35:40;16.48;;;10.15;;
66751;SDS011;53663;42.676;23.238;2022-10-23T00:38:07;18.15;;;11.23;;
66751;SDS011;53663;42.676;23.238;2022-10-23T00:40:33;18.30;;;10.07;;
66751;SDS011;53663;42.676;23.238;2022-10-23T00:42:59;28.58;;;10.75;;
66751;SDS011;53663;42.676;23.238;2022-10-23T00:45:29;21.63;;;10.00;;
66751;SDS011;53663;42.676;23.238;2022-10-23T00:48:00;23.17;;;10.38;;
66751;SDS011;53663;42.676;23.238;2022-10-23T00:50:28;20.42;;;10.52;;
66751;SDS011;53663;42.676;23.238;2022-10-23T00:52:56;18.27;;;10.10;;
66751;SDS011;53663;42.676;23.238;2022-10-23T00:55:25;18.90;;;9.15;;
66751;SDS011;53663;42.676;23.238;2022-10-23T00:57:52;19.05;;;9.32;;
66751;SDS011;53663;42.676;23.238;2022-10-23T01:00:29;15.10;;;6.47;;
66751;SDS011;53663;42.676;23.238;2022-10-23T01:03:04;13.32;;;6.00;;
66751;SDS011;53663;42.676;23.238;2022-10-23T01:05:30;13.85;;;4.93;;
66751;SDS011;53663;42.676;23.238;2022-10-23T01:08:25;14.63;;;3.90;;
66751;SDS011;53663;42.676;23.238;2022-10-23T01:11:19;12.27;;;3.75;;
66751;SDS011;53663;42.676;23.238;2022-10-23T01:16:27;15.98;;;3.92;;
66751;SDS011;53663;42.676;23.238;2022-10-23T01:24:41;8.70;;;3.88;;
66751;SDS011;53663;42.676;23.238;2022-10-23T01:27:19;20.35;;;9.68;;
66751;SDS011;53663;42.676;23.238;2022-10-23T01:32:54;21.08;;;10.82;;
66751;SDS011;53663;42.676;23.238;2022-10-23T01:38:26;19.35;;;10.68;;
66751;SDS011;53663;42.676;23.238;2022-10-23T01:41:23;35.83;;;16.00;;
66751;SDS011;53663;42.676;23.238;2022-10-23T01:46:46;34.55;;;18.35;;
66751;SDS011;53663;42.676;23.238;2022-10-23T01:49:14;41.60;;;20.75;;
66751;SDS011;53663;42.676;23.238;2022-10-23T01:51:43;41.22;;;20.23;;
66751;SDS011;53663;42.676;23.238;2022-10-23T01:54:12;34.47;;;19.17;;
66751;SDS011;53663;42.676;23.238;2022-10-23T01:56:41;32.42;;;19.48;;
66751;SDS011;53663;42.676;23.238;2022-10-23T01:59:11;31.67;;;18.42;;
66751;SDS011;53663;42.676;23.238;2022-10-23T02:04:07;34.60;;;17.02;;
66751;SDS011;53663;42.676;23.238;2022-10-23T02:06:36;41.92;;;17.92;;
66751;SDS011;53663;42.676;23.238;2022-10-23T02:09:02;25.23;;;15.85;;
66751;SDS011;53663;42.676;23.238;2022-10-23T02:11:28;31.05;;;16.35;;
66751;SDS011;53663;42.676;23.238;2022-10-23T02:14:03;30.75;;;17.02;;
66751;SDS011;53663;42.676;23.238;2022-10-23T02:16:39;32.00;;;16.20;;
66751;SDS011;53663;42.676;23.238;2022-10-23T02:24:53;40.05;;;16.77;;
66751;SDS011;53663;42.676;23.238;2022-10-23T02:27:29;36.45;;;17.55;;
66751;SDS011;53663;42.676;23.238;2022-10-23T02:30:04;28.10;;;17.05;;
66751;SDS011;53663;42.676;23.238;2022-10-23T02:32:34;30.33;;;18.38;;
66751;SDS011;53663;42.676;23.238;2022-10-23T02:35:02;31.92;;;17.80;;
66751;SDS011;53663;42.676;23.238;2022-10-23T02:37:29;41.45;;;19.48;;
66751;SDS011;53663;42.676;23.238;2022-10-23T02:39:54;39.22;;;17.58;;
66751;SDS011;53663;42.676;23.238;2022-10-23T02:42:32;39.70;;;17.50;;
66751;SDS011;53663;42.676;23.238;2022-10-23T02:55:52;25.58;;;14.95;;
66751;SDS011;53663;42.676;23.238;2022-10-23T02:58:54;31.98;;;14.75;;
66751;SDS011;53663;42.676;23.238;2022-10-23T03:04:54;26.13;;;13.18;;
66751;SDS011;53663;42.676;23.238;2022-10-23T03:07:20;28.50;;;13.15;;
66751;SDS011;53663;42.676;23.238;2022-10-23T03:09:46;25.50;;;13.25;;
66751;SDS011;53663;42.676;23.238;2022-10-23T03:12:12;29.75;;;12.07;;
66751;SDS011;53663;42.676;23.238;2022-10-23T03:14:38;21.02;;;11.45;;
66751;SDS011;53663;42.676;23.238;2022-10-23T03:17:03;22.55;;;11.05;;
66751;SDS011;53663;42.676;23.238;2022-10-23T03:19:31;19.77;;;10.35;;
66751;SDS011;53663;42.676;23.238;2022-10-23T03:21:57;21.30;;;8.27;;
66751;SDS011;53663;42.676;23.238;2022-10-23T03:24:22;19.70;;;7.90;;
66751;SDS011;53663;42.676;23.238;2022-10-23T03:26:48;18.38;;;7.22;;
66751;SDS011;53663;42.676;23.238;2022-10-23T03:29:13;14.48;;;6.03;;
66751;SDS011;53663;42.676;23.238;2022-10-23T03:31:43;17.55;;;5.80;;
66751;SDS011;53663;42.676;23.238;2022-10-23T03:34:08;19.25;;;5.85;;
66751;SDS011;53663;42.676;23.238;2022-10-23T03:36:38;16.38;;;5.78;;
66751;SDS011;53663;42.676;23.238;2022-10-23T03:39:04;12.80;;;5.18;;
66751;SDS011;53663;42.676;23.238;2022-10-23T03:41:31;11.23;;;5.57;;
66751;SDS011;53663;42.676;23.238;2022-10-23T03:43:56;16.10;;;5.55;;
66751;SDS011;53663;42.676;23.238;2022-10-23T03:46:22;12.85;;;6.28;;
66751;SDS011;53663;42.676;23.238;2022-10-23T03:48:52;15.93;;;5.53;;
66751;SDS011;53663;42.676;23.238;2022-10-23T03:51:18;24.65;;;5.90;;
66751;SDS011;53663;42.676;23.238;2022-10-23T03:53:44;12.23;;;5.30;;
66751;SDS011;53663;42.676;23.238;2022-10-23T03:56:09;18.58;;;5.82;;
66751;SDS011;53663;42.676;23.238;2022-10-23T03:58:35;14.43;;;5.50;;
66751;SDS011;53663;42.676;23.238;2022-10-23T04:01:00;14.77;;;5.13;;
66751;SDS011;53663;42.676;23.238;2022-10-23T04:03:26;15.95;;;4.35;;
66751;SDS011;53663;42.676;23.238;2022-10-23T04:05:52;13.40;;;4.90;;
66751;SDS011;53663;42.676;23.238;2022-10-23T04:08:19;15.90;;;5.07;;
66751;SDS011;53663;42.676;23.238;2022-10-23T04:10:47;14.15;;;5.10;;
66751;SDS011;53663;42.676;23.238;2022-10-23T04:13:13;14.95;;;4.97;;
66751;SDS011;53663;42.676;23.238;2022-10-23T04:15:38;12.60;;;4.90;;
66751;SDS011;53663;42.676;23.238;2022-10-23T04:18:04;15.40;;;4.93;;
66751;SDS011;53663;42.676;23.238;2022-10-23T04:20:30;18.05;;;5.22;;
66751;SDS011;53663;42.676;23.238;2022-10-23T04:23:00;16.30;;;5.03;;
66751;SDS011;53663;42.676;23.238;2022-10-23T04:25:25;11.07;;;4.55;;
66751;SDS011;53663;42.676;23.238;2022-10-23T04:27:51;9.38;;;4.25;;
66751;SDS011;53663;42.676;23.238;2022-10-23T04:30:16;9.20;;;4.13;;
66751;SDS011;53663;42.676;23.238;2022-10-23T04:32:44;15.55;;;4.68;;
66751;SDS011;53663;42.676;23.238;2022-10-23T04:35:09;10.57;;;4.47;;
66751;SDS011;53663;42.676;23.238;2022-10-23T04:37:35;10.23;;;4.97;;
66751;SDS011;53663;42.676;23.238;2022-10-23T04:40:00;10.32;;;4.53;;
66751;SDS011;53663;42.676;23.238;2022-10-23T04:42:26;9.85;;;4.20;;
66751;SDS011;53663;42.676;23.238;2022-10-23T04:44:51;9.25;;;4.30;;
66751;SDS011;53663;42.676;23.238;2022-10-23T04:47:17;12.27;;;4.38;;
66751;SDS011;53663;42.676;23.238;2022-10-23T04:49:55;12.82;;;4.03;;
66751;SDS011;53663;42.676;23.238;2022-10-23T04:52:40;11.70;;;3.90;;
66751;SDS011;53663;42.676;23.238;2022-10-23T04:55:24;9.80;;;3.75;;
66751;SDS011;53663;42.676;23.238;2022-10-23T04:58:04;7.07;;;4.15;;
66751;SDS011;53663;42.676;23.238;2022-10-23T05:00:30;11.18;;;4.35;;
66751;SDS011;53663;42.676;23.238;2022-10-23T05:02:56;10.82;;;4.20;;
66751;SDS011;53663;42.676;23.238;2022-10-23T05:05:21;10.63;;;4.35;;
66751;SDS011;53663;42.676;23.238;2022-10-23T05:07:53;13.70;;;4.40;;
66751;SDS011;53663;42.676;23.238;2022-10-23T05:10:27;11.18;;;3.85;;
66751;SDS011;53663;42.676;23.238;2022-10-23T05:13:15;7.90;;;3.65;;
66751;SDS011;53663;42.676;23.238;2022-10-23T05:15:43;10.07;;;3.90;;
66751;SDS011;53663;42.676;23.238;2022-10-23T05:18:12;9.93;;;3.65;;
66751;SDS011;53663;42.676;23.238;2022-10-23T05:20:42;13.00;;;4.00;;
66751;SDS011;53663;42.676;23.238;2022-10-23T05:23:11;12.52;;;4.30;;
66751;SDS011;53663;42.676;23.238;2022-10-23T05:25:50;12.00;;;4.22;;
66751;SDS011;53663;42.676;23.238;2022-10-23T05:28:16;9.07;;;4.10;;
66751;SDS011;53663;42.676;23.238;2022-10-23T05:30:42;12.40;;;4.45;;
66751;SDS011;53663;42.676;23.238;2022-10-23T05:33:08;11.65;;;4.75;;
66751;SDS011;53663;42.676;23.238;2022-10-23T05:35:38;8.85;;;4.28;;
66751;SDS011;53663;42.676;23.238;2022-10-23T05:38:07;10.35;;;4.53;;
66751;SDS011;53663;42.676;23.238;2022-10-23T05:40:33;11.27;;;4.53;;
66751;SDS011;53663;42.676;23.238;2022-10-23T05:43:12;16.17;;;4.78;;
66751;SDS011;53663;42.676;23.238;2022-10-23T05:45:47;15.85;;;4.85;;
66751;SDS011;53663;42.676;23.238;2022-10-23T05:48:31;8.77;;;4.78;;
66751;SDS011;53663;42.676;23.238;2022-10-23T05:51:07;11.93;;;4.80;;
66751;SDS011;53663;42.676;23.238;2022-10-23T05:53:43;16.17;;;4.70;;
66751;SDS011;53663;42.676;23.238;2022-10-23T05:56:38;12.43;;;4.95;;
66751;SDS011;53663;42.676;23.238;2022-10-23T05:59:21;12.32;;;4.68;;
66751;SDS011;53663;42.676;23.238;2022-10-23T06:01:50;8.93;;;4.38;;
66751;SDS011;53663;42.676;23.238;2022-10-23T06:04:25;10.30;;;4.47;;
66751;SDS011;53663;42.676;23.238;2022-10-23T06:07:11;16.02;;;4.32;;
66751;SDS011;53663;42.676;23.238;2022-10-23T06:09:37;8.90;;;4.55;;
66751;SDS011;53663;42.676;23.238;2022-10-23T06:12:03;15.32;;;4.50;;
66751;SDS011;53663;42.676;23.238;2022-10-23T06:14:30;10.10;;;4.10;;
66751;SDS011;53663;42.676;23.238;2022-10-23T06:16:56;15.07;;;4.93;;
66751;SDS011;53663;42.676;23.238;2022-10-23T06:19:23;10.27;;;4.68;;
66751;SDS011;53663;42.676;23.238;2022-10-23T06:21:52;15.13;;;4.70;;
66751;SDS011;53663;42.676;23.238;2022-10-23T06:24:22;15.30;;;4.47;;
66751;SDS011;53663;42.676;23.238;2022-10-23T06:26:53;10.20;;;4.55;;
66751;SDS011;53663;42.676;23.238;2022-10-23T06:29:33;8.80;;;4.25;;
66751;SDS011;53663;42.676;23.238;2022-10-23T06:31:59;13.52;;;4.57;;
66751;SDS011;53663;42.676;23.238;2022-10-23T06:34:25;8.98;;;4.28;;
66751;SDS011;53663;42.676;23.238;2022-10-23T06:36:51;9.50;;;4.43;;
66751;SDS011;53663;42.676;23.238;2022-10-23T06:39:33;9.85;;;4.40;;
66751;SDS011;53663;42.676;23.238;2022-10-23T06:42:19;14.50;;;4.63;;
66751;SDS011;53663;42.676;23.238;2022-10-23T06:44:54;8.10;;;4.22;;
66751;SDS011;53663;42.676;23.238;2022-10-23T06:47:52;9.10;;;4.60;;
66751;SDS011;53663;42.676;23.238;2022-10-23T06:50:27;9.65;;;4.43;;
66751;SDS011;53663;42.676;23.238;2022-10-23T06:52:56;9.38;;;4.82;;
66751;SDS011;53663;42.676;23.238;2022-10-23T06:55:21;12.93;;;4.63;;
66751;SDS011;53663;42.676;23.238;2022-10-23T06:57:47;9.15;;;4.10;;
66751;SDS011;53663;42.676;23.238;2022-10-23T07:00:13;11.50;;;4.93;;
66751;SDS011;53663;42.676;23.238;2022-10-23T07:02:48;12.63;;;4.43;;
66751;SDS011;53663;42.676;23.238;2022-10-23T07:05:14;18.17;;;4.35;;
66751;SDS011;53663;42.676;23.238;2022-10-23T07:07:41;12.88;;;4.13;;
66751;SDS011;53663;42.676;23.238;2022-10-23T07:10:08;13.05;;;4.45;;
66751;SDS011;53663;42.676;23.238;2022-10-23T07:12:40;10.68;;;4.38;;
66751;SDS011;53663;42.676;23.238;2022-10-23T07:15:26;10.43;;;4.63;;
66751;SDS011;53663;42.676;23.238;2022-10-23T07:17:52;8.43;;;4.50;;
66751;SDS011;53663;42.676;23.238;2022-10-23T07:20:18;10.43;;;5.15;;
66751;SDS011;53663;42.676;23.238;2022-10-23T07:22:52;9.73;;;4.90;;
66751;SDS011;53663;42.676;23.238;2022-10-23T07:25:26;9.50;;;5.10;;
66751;SDS011;53663;42.676;23.238;2022-10-23T07:27:52;10.32;;;4.93;;
66751;SDS011;53663;42.676;23.238;2022-10-23T07:30:21;9.45;;;4.38;;
66751;SDS011;53663;42.676;23.238;2022-10-23T07:32:50;11.43;;;4.15;;
66751;SDS011;53663;42.676;23.238;2022-10-23T07:35:37;10.95;;;3.92;;
66751;SDS011;53663;42.676;23.238;2022-10-23T07:38:10;10.63;;;4.15;;
66751;SDS011;53663;42.676;23.238;2022-10-23T07:40:42;5.95;;;3.95;;
66751;SDS011;53663;42.676;23.238;2022-10-23T07:43:09;10.40;;;4.18;;
66751;SDS011;53663;42.676;23.238;2022-10-23T07:45:35;13.73;;;4.72;;
66751;SDS011;53663;42.676;23.238;2022-10-23T07:48:07;11.35;;;4.93;;
66751;SDS011;53663;42.676;23.238;2022-10-23T07:50:56;8.95;;;4.20;;
66751;SDS011;53663;42.676;23.238;2022-10-23T07:55:59;12.93;;;4.78;;
66751;SDS011;53663;42.676;23.238;2022-10-23T07:58:43;12.55;;;4.35;;
66751;SDS011;53663;42.676;23.238;2022-10-23T08:01:17;5.80;;;4.10;;
66751;SDS011;53663;42.676;23.238;2022-10-23T08:03:52;5.40;;;3.92;;
66751;SDS011;53663;42.676;23.238;2022-10-23T08:06:17;7.43;;;3.90;;
66751;SDS011;53663;42.676;23.238;2022-10-23T08:08:43;8.30;;;4.22;;
66751;SDS011;53663;42.676;23.238;2022-10-23T08:11:10;13.55;;;4.88;;
66751;SDS011;53663;42.676;23.238;2022-10-23T08:13:45;11.77;;;4.40;;
66751;SDS011;53663;42.676;23.238;2022-10-23T08:16:11;10.88;;;3.97;;
66751;SDS011;53663;42.676;23.238;2022-10-23T08:18:59;8.45;;;4.00;;
66751;SDS011;53663;42.676;23.238;2022-10-23T08:21:27;11.70;;;4.68;;
66751;SDS011;53663;42.676;23.238;2022-10-23T08:23:53;11.73;;;4.70;;
66751;SDS011;53663;42.676;23.238;2022-10-23T08:26:19;11.13;;;4.35;;
66751;SDS011;53663;42.676;23.238;2022-10-23T08:28:45;11.60;;;4.35;;
66751;SDS011;53663;42.676;23.238;2022-10-23T08:31:12;6.90;;;4.07;;
66751;SDS011;53663;42.676;23.238;2022-10-23T08:33:49;7.97;;;4.70;;
66751;SDS011;53663;42.676;23.238;2022-10-23T08:38:45;6.13;;;4.18;;
66751;SDS011;53663;42.676;23.238;2022-10-23T08:46:41;8.32;;;4.50;;
66751;SDS011;53663;42.676;23.238;2022-10-23T08:52:10;9.10;;;4.53;;
66751;SDS011;53663;42.676;23.238;2022-10-23T08:54:44;8.65;;;4.28;;
66751;SDS011;53663;42.676;23.238;2022-10-23T08:57:16;8.85;;;3.90;;
66751;SDS011;53663;42.676;23.238;2022-10-23T08:59:48;7.32;;;3.97;;
66751;SDS011;53663;42.676;23.238;2022-10-23T09:02:25;8.68;;;4.18;;
66751;SDS011;53663;42.676;23.238;2022-10-23T09:04:55;12.00;;;4.43;;
66751;SDS011;53663;42.676;23.238;2022-10-23T09:12:28;6.75;;;3.83;;
66751;SDS011;53663;42.676;23.238;2022-10-23T09:17:36;7.20;;;3.90;;
66751;SDS011;53663;42.676;23.238;2022-10-23T09:22:48;4.65;;;3.40;;
66751;SDS011;53663;42.676;23.238;2022-10-23T09:25:29;6.82;;;3.88;;
66751;SDS011;53663;42.676;23.238;2022-10-23T09:28:00;7.38;;;3.70;;
66751;SDS011;53663;42.676;23.238;2022-10-23T09:30:31;6.15;;;3.55;;
66751;SDS011;53663;42.676;23.238;2022-10-23T09:35:54;8.38;;;3.90;;
66751;SDS011;53663;42.676;23.238;2022-10-23T09:39:18;6.03;;;3.83;;
66751;SDS011;53663;42.676;23.238;2022-10-23T09:41:15;9.57;;;3.55;;
66751;SDS011;53663;42.676;23.238;2022-10-23T09:44:52;5.25;;;3.63;;
66751;SDS011;53663;42.676;23.238;2022-10-23T09:46:52;7.00;;;3.70;;
66751;SDS011;53663;42.676;23.238;2022-10-23T09:49:46;7.82;;;3.38;;
66751;SDS011;53663;42.676;23.238;2022-10-23T09:57:22;3.80;;;3.17;;
66751;SDS011;53663;42.676;23.238;2022-10-23T09:59:52;4.40;;;2.90;;
66751;SDS011;53663;42.676;23.238;2022-10-23T10:02:30;4.25;;;3.10;;
66751;SDS011;53663;42.676;23.238;2022-10-23T10:10:38;7.75;;;3.13;;
66751;SDS011;53663;42.676;23.238;2022-10-23T10:13:17;5.13;;;2.80;;
66751;SDS011;53663;42.676;23.238;2022-10-23T10:23:46;8.67;;;3.23;;
66751;SDS011;53663;42.676;23.238;2022-10-23T10:26:24;3.75;;;2.80;;
66751;SDS011;53663;42.676;23.238;2022-10-23T10:37:04;5.47;;;2.63;;
66751;SDS011;53663;42.676;23.238;2022-10-23T10:42:33;4.10;;;2.83;;
66751;SDS011;53663;42.676;23.238;2022-10-23T10:54:23;2.38;;;2.03;;
66751;SDS011;53663;42.676;23.238;2022-10-23T10:57:03;3.53;;;2.10;;
66751;SDS011;53663;42.676;23.238;2022-10-23T10:59:40;6.53;;;1.80;;
66751;SDS011;53663;42.676;23.238;2022-10-23T11:04:44;6.25;;;2.05;;
66751;SDS011;53663;42.676;23.238;2022-10-23T11:07:20;5.80;;;2.25;;
66751;SDS011;53663;42.676;23.238;2022-10-23T11:09:49;3.22;;;2.10;;
66751;SDS011;53663;42.676;23.238;2022-10-23T11:12:15;3.63;;;2.10;;
66751;SDS011;53663;42.676;23.238;2022-10-23T11:14:43;4.07;;;1.75;;
66751;SDS011;53663;42.676;23.238;2022-10-23T11:17:20;3.55;;;2.00;;
66751;SDS011;53663;42.676;23.238;2022-10-23T11:20:13;4.13;;;1.83;;
66751;SDS011;53663;42.676;23.238;2022-10-23T11:31:10;2.60;;;1.80;;
66751;SDS011;53663;42.676;23.238;2022-10-23T11:39:40;4.22;;;2.60;;
66751;SDS011;53663;42.676;23.238;2022-10-23T11:47:00;5.13;;;2.40;;
66751;SDS011;53663;42.676;23.238;2022-10-23T11:49:27;2.95;;;2.20;;
66751;SDS011;53663;42.676;23.238;2022-10-23T11:52:03;4.35;;;2.40;;
66751;SDS011;53663;42.676;23.238;2022-10-23T11:54:46;2.30;;;1.90;;
66751;SDS011;53663;42.676;23.238;2022-10-23T11:57:12;3.30;;;2.10;;
66751;SDS011;53663;42.676;23.238;2022-10-23T12:02:28;4.18;;;1.98;;
66751;SDS011;53663;42.676;23.238;2022-10-23T12:05:06;5.80;;;2.08;;
66751;SDS011;53663;42.676;23.238;2022-10-23T12:07:53;3.35;;;2.10;;
66751;SDS011;53663;42.676;23.238;2022-10-23T12:10:29;4.88;;;2.00;;
66751;SDS011;53663;42.676;23.238;2022-10-23T12:12:56;3.25;;;2.05;;
66751;SDS011;53663;42.676;23.238;2022-10-23T12:15:23;5.13;;;2.03;;
66751;SDS011;53663;42.676;23.238;2022-10-23T12:17:51;3.78;;;1.88;;
66751;SDS011;53663;42.676;23.238;2022-10-23T12:28:28;9.63;;;2.70;;
66751;SDS011;53663;42.676;23.238;2022-10-23T12:36:39;4.28;;;2.28;;
66751;SDS011;53663;42.676;23.238;2022-10-23T12:39:23;2.40;;;2.17;;
66751;SDS011;53663;42.676;23.238;2022-10-23T12:41:50;3.78;;;2.45;;
66751;SDS011;53663;42.676;23.238;2022-10-23T12:44:15;6.95;;;2.20;;
66751;SDS011;53663;42.676;23.238;2022-10-23T12:46:41;3.05;;;2.03;;
66751;SDS011;53663;42.676;23.238;2022-10-23T12:49:16;6.68;;;2.10;;
66751;SDS011;53663;42.676;23.238;2022-10-23T12:51:44;3.70;;;2.10;;
66751;SDS011;53663;42.676;23.238;2022-10-23T12:54:14;3.58;;;2.05;;
66751;SDS011;53663;42.676;23.238;2022-10-23T12:56:41;5.75;;;2.55;;
66751;SDS011;53663;42.676;23.238;2022-10-23T12:59:22;2.45;;;2.13;;
66751;SDS011;53663;42.676;23.238;2022-10-23T13:01:50;7.20;;;2.40;;
66751;SDS011;53663;42.676;23.238;2022-10-23T13:06:51;5.07;;;1.92;;
66751;SDS011;53663;42.676;23.238;2022-10-23T13:12:27;2.55;;;2.05;;
66751;SDS011;53663;42.676;23.238;2022-10-23T13:17:47;3.65;;;2.10;;
66751;SDS011;53663;42.676;23.238;2022-10-23T13:20:23;4.30;;;2.00;;
66751;SDS011;53663;42.676;23.238;2022-10-23T13:25:29;3.35;;;1.90;;
66751;SDS011;53663;42.676;23.238;2022-10-23T13:30:41;6.18;;;2.30;;
66751;SDS011;53663;42.676;23.238;2022-10-23T13:35:53;5.72;;;1.90;;
66751;SDS011;53663;42.676;23.238;2022-10-23T13:41:00;2.58;;;1.90;;
66751;SDS011;53663;42.676;23.238;2022-10-23T13:43:27;2.65;;;1.92;;
66751;SDS011;53663;42.676;23.238;2022-10-23T13:45:55;2.03;;;1.75;;
66751;SDS011;53663;42.676;23.238;2022-10-23T13:48:21;3.42;;;2.25;;
66751;SDS011;53663;42.676;23.238;2022-10-23T13:50:47;5.28;;;1.85;;
66751;SDS011;53663;42.676;23.238;2022-10-23T13:53:13;3.30;;;2.00;;
66751;SDS011;53663;42.676;23.238;2022-10-23T13:55:43;2.65;;;1.70;;
66751;SDS011;53663;42.676;23.238;2022-10-23T13:58:09;6.88;;;1.77;;
66751;SDS011;53663;42.676;23.238;2022-10-23T14:00:35;4.32;;;1.80;;
66751;SDS011;53663;42.676;23.238;2022-10-23T14:03:02;5.10;;;1.95;;
66751;SDS011;53663;42.676;23.238;2022-10-23T14:05:28;3.45;;;2.08;;
66751;SDS011;53663;42.676;23.238;2022-10-23T14:07:54;4.07;;;1.80;;
66751;SDS011;53663;42.676;23.238;2022-10-23T14:10:19;7.22;;;2.70;;
66751;SDS011;53663;42.676;23.238;2022-10-23T14:12:46;3.58;;;1.80;;
66751;SDS011;53663;42.676;23.238;2022-10-23T14:15:12;2.97;;;2.00;;
66751;SDS011;53663;42.676;23.238;2022-10-23T14:17:37;3.58;;;1.85;;
66751;SDS011;53663;42.676;23.238;2022-10-23T14:20:03;2.20;;;1.90;;
66751;SDS011;53663;42.676;23.238;2022-10-23T14:22:29;6.63;;;2.00;;
66751;SDS011;53663;42.676;23.238;2022-10-23T14:24:55;3.13;;;1.90;;
66751;SDS011;53663;42.676;23.238;2022-10-23T14:27:20;6.55;;;2.00;;
66751;SDS011;53663;42.676;23.238;2022-10-23T14:29:46;4.80;;;2.00;;
66751;SDS011;53663;42.676;23.238;2022-10-23T14:32:11;6.35;;;1.85;;
66751;SDS011;53663;42.676;23.238;2022-10-23T14:34:38;5.78;;;1.85;;
66751;SDS011;53663;42.676;23.238;2022-10-23T14:37:06;2.33;;;1.83;;
66751;SDS011;53663;42.676;23.238;2022-10-23T14:39:32;3.97;;;2.17;;
66751;SDS011;53663;42.676;23.238;2022-10-23T14:41:58;8.60;;;2.40;;
66751;SDS011;53663;42.676;23.238;2022-10-23T14:44:23;10.90;;;3.58;;
66751;SDS011;53663;42.676;23.238;2022-10-23T14:46:49;7.22;;;3.35;;
66751;SDS011;53663;42.676;23.238;2022-10-23T14:49:16;6.60;;;3.90;;
66751;SDS011;53663;42.676;23.238;2022-10-23T14:51:41;9.93;;;2.92;;
66751;SDS011;53663;42.676;23.238;2022-10-23T14:54:07;6.63;;;2.70;;
66751;SDS011;53663;42.676;23.238;2022-10-23T14:56:34;6.22;;;3.00;;
66751;SDS011;53663;42.676;23.238;2022-10-23T14:59:01;4.57;;;2.40;;
66751;SDS011;53663;42.676;23.238;2022-10-23T15:01:31;9.20;;;2.60;;
66751;SDS011;53663;42.676;23.238;2022-10-23T15:04:02;5.47;;;2.38;;
66751;SDS011;53663;42.676;23.238;2022-10-23T15:06:28;6.60;;;2.85;;
66751;SDS011;53663;42.676;23.238;2022-10-23T15:08:54;9.70;;;2.80;;
66751;SDS011;53663;42.676;23.238;2022-10-23T15:11:19;6.47;;;2.67;;
66751;SDS011;53663;42.676;23.238;2022-10-23T15:13:50;15.25;;;2.95;;
66751;SDS011;53663;42.676;23.238;2022-10-23T15:16:16;13.07;;;3.88;;
66751;SDS011;53663;42.676;23.238;2022-10-23T15:18:42;20.45;;;4.28;;
66751;SDS011;53663;42.676;23.238;2022-10-23T15:21:08;13.57;;;3.53;;
66751;SDS011;53663;42.676;23.238;2022-10-23T15:23:35;17.92;;;4.00;;
66751;SDS011;53663;42.676;23.238;2022-10-23T15:26:07;23.08;;;3.88;;
66751;SDS011;53663;42.676;23.238;2022-10-23T15:28:35;16.90;;;3.20;;
66751;SDS011;53663;42.676;23.238;2022-10-23T15:31:01;16.08;;;3.13;;
66751;SDS011;53663;42.676;23.238;2022-10-23T15:33:27;13.98;;;2.80;;
66751;SDS011;53663;42.676;23.238;2022-10-23T15:35:52;4.57;;;2.85;;
66751;SDS011;53663;42.676;23.238;2022-10-23T15:38:18;7.28;;;2.72;;
66751;SDS011;53663;42.676;23.238;2022-10-23T15:40:44;5.88;;;2.47;;
66751;SDS011;53663;42.676;23.238;2022-10-23T15:43:11;2.90;;;2.17;;
66751;SDS011;53663;42.676;23.238;2022-10-23T15:45:37;41.65;;;4.15;;
66751;SDS011;53663;42.676;23.238;2022-10-23T15:48:03;8.35;;;2.38;;
66751;SDS011;53663;42.676;23.238;2022-10-23T15:50:29;4.88;;;2.80;;
66751;SDS011;53663;42.676;23.238;2022-10-23T15:52:55;8.30;;;2.40;;
66751;SDS011;53663;42.676;23.238;2022-10-23T15:55:21;9.00;;;2.60;;
66751;SDS011;53663;42.676;23.238;2022-10-23T15:57:47;5.85;;;2.50;;
66751;SDS011;53663;42.676;23.238;2022-10-23T16:00:12;4.32;;;2.67;;
66751;SDS011;53663;42.676;23.238;2022-10-23T16:02:39;4.05;;;2.40;;
66751;SDS011;53663;42.676;23.238;2022-10-23T16:05:07;6.15;;;2.45;;
66751;SDS011;53663;42.676;23.238;2022-10-23T16:07:32;4.60;;;2.70;;
66751;SDS011;53663;42.676;23.238;2022-10-23T16:09:58;5.90;;;2.88;;
66751;SDS011;53663;42.676;23.238;2022-10-23T16:12:24;5.78;;;3.20;;
66751;SDS011;53663;42.676;23.238;2022-10-23T16:14:49;5.05;;;3.22;;
66751;SDS011;53663;42.676;23.238;2022-10-23T16:17:16;6.55;;;3.00;;
66751;SDS011;53663;42.676;23.238;2022-10-23T16:19:43;11.30;;;3.10;;
66751;SDS011;53663;42.676;23.238;2022-10-23T16:22:09;9.60;;;3.08;;
66751;SDS011;53663;42.676;23.238;2022-10-23T16:24:34;4.60;;;2.80;;
66751;SDS011;53663;42.676;23.238;2022-10-23T16:27:00;5.18;;;3.03;;
66751;SDS011;53663;42.676;23.238;2022-10-23T16:29:26;6.13;;;3.00;;
66751;SDS011;53663;42.676;23.238;2022-10-23T16:31:53;4.90;;;2.60;;
66751;SDS011;53663;42.676;23.238;2022-10-23T16:34:20;5.75;;;2.70;;
66751;SDS011;53663;42.676;23.238;2022-10-23T16:36:47;2.85;;;2.10;;
66751;SDS011;53663;42.676;23.238;2022-10-23T16:39:13;4.43;;;2.33;;
66751;SDS011;53663;42.676;23.238;2022-10-23T16:42:00;5.38;;;2.20;;
66751;SDS011;53663;42.676;23.238;2022-10-23T16:44:37;4.68;;;2.38;;
66751;SDS011;53663;42.676;23.238;2022-10-23T16:47:04;4.95;;;2.03;;
66751;SDS011;53663;42.676;23.238;2022-10-23T16:49:30;21.42;;;6.85;;
66751;SDS011;53663;42.676;23.238;2022-10-23T16:51:56;7.00;;;3.47;;
66751;SDS011;53663;42.676;23.238;2022-10-23T16:54:21;6.72;;;2.75;;
66751;SDS011;53663;42.676;23.238;2022-10-23T16:56:47;6.32;;;2.63;;
66751;SDS011;53663;42.676;23.238;2022-10-23T16:59:13;6.93;;;2.70;;
66751;SDS011;53663;42.676;23.238;2022-10-23T17:01:38;2.35;;;1.88;;
66751;SDS011;53663;42.676;23.238;2022-10-23T17:04:04;2.70;;;1.90;;
66751;SDS011;53663;42.676;23.238;2022-10-23T17:06:31;6.18;;;2.88;;
66751;SDS011;53663;42.676;23.238;2022-10-23T17:08:57;3.00;;;2.33;;
66751;SDS011;53663;42.676;23.238;2022-10-23T17:11:27;7.55;;;2.58;;
66751;SDS011;53663;42.676;23.238;2022-10-23T17:13:59;3.55;;;2.50;;
66751;SDS011;53663;42.676;23.238;2022-10-23T17:16:29;9.93;;;2.28;;
66751;SDS011;53663;42.676;23.238;2022-10-23T17:18:56;5.10;;;2.30;;
66751;SDS011;53663;42.676;23.238;2022-10-23T17:21:22;2.45;;;1.98;;
66751;SDS011;53663;42.676;23.238;2022-10-23T17:23:48;5.55;;;2.10;;
66751;SDS011;53663;42.676;23.238;2022-10-23T17:26:16;5.25;;;2.67;;
66751;SDS011;53663;42.676;23.238;2022-10-23T17:28:42;4.03;;;2.13;;